• Join FlightAware (Why Join?)
  • Login
  • US Flag 
01:00AM EST


 

Airport Tracker/Info


-or-


 

Live Flight TrackerFlight Track Log ✈ FDX437 ✈ 26-Apr-2013 ✈ KLCK - KMEM

Flight Track Log - Related Links

Times and Time Zones

All times are in EDT time to prevent confusion due to time zone crossing. See the FDX437 flight status page for this flight to view local times or setup timezone preferences in your user account.

Time Position Orientation Groundspeed Altitude Reporting Facility
EDT Latitude Longitude Course Direction KTS MPH feet Rate Location/Type
09:11AM 39.8106 -82.9344 276° West 161 185 1,200  Level Indianapolis Center
09:12AM 39.8167 -83.0047 276° West 236 272 4,000 3,026 Climbing Indianapolis Center
09:13AM 39.8514 -83.0397 322° Northwest 250 288 7,000 4,548 Climbing Indianapolis Center
09:13AM 39.8733 -83.0569 329° Northwest 246 283 8,700 2,000 Climbing Indianapolis Center
09:14AM 39.9061 -83.1456 296° West 277 319 10,000 634 Climbing Indianapolis Center
09:15AM 39.9417 -83.2544 293° West 323 372 10,000 1,073 Level Indianapolis Center
09:16AM 39.9725 -83.3722 289° West 347 399 12,200 2,903 Climbing Indianapolis Center
09:17AM 39.9189 -83.4831 238° Southwest 378 435 16,000 3,435 Climbing Indianapolis Center
09:18AM 39.8275 -83.5925 223° Southwest 394 453 19,300 3,000 Climbing Indianapolis Center
09:19AM 39.7450 -83.6906 222° Southwest 400 460 22,200 2,516 Climbing Indianapolis Center
09:20AM 39.6581 -83.7942 223° Southwest 418 481 24,500 2,226 Climbing Indianapolis Center
09:21AM 39.5683 -83.8989 222° Southwest 428 493 26,800 2,274 Climbing Indianapolis Center
09:23AM 39.4706 -83.9989 218° Southwest 440 506 29,200 2,468 Climbing Indianapolis Center
09:24AM 39.3583 -84.1103 218° Southwest 433 498 31,900 1,984 Climbing Indianapolis Center
09:25AM 39.2625 -84.2053 218° Southwest 430 495 33,300 1,016 Climbing Indianapolis Center
09:26AM 39.1656 -84.3014 218° Southwest 434 499 34,000 339 Climbing Indianapolis Center
09:27AM 39.0694 -84.3972 218° Southwest 434 499 34,000 -48 Level Indianapolis Center
09:28AM 38.9750 -84.4911 218° Southwest 427 491 33,900  Descending Indianapolis Center
09:29AM 38.8794 -84.5861 218° Southwest 425 489 34,000 48 Climbing Indianapolis Center
09:30AM 38.7825 -84.6800 217° Southwest 431 496 34,000  Level Indianapolis Center
09:31AM 38.6867 -84.7744 218° Southwest 433 498 34,000  Level Indianapolis Center
09:32AM 38.5844 -84.8753 218° Southwest 432 497 34,000  Level Indianapolis Center
09:33AM 38.4892 -84.9669 217° Southwest 428 493 34,000  Level Indianapolis Center
09:34AM 38.3764 -85.0767 217° Southwest 435 501 34,000  Level Indianapolis Center
09:35AM 38.2811 -85.1678 217° Southwest 431 496 34,000  Level Indianapolis Center
09:36AM 38.1822 -85.2642 217° Southwest 434 499 34,000  Level Indianapolis Center
09:37AM 38.0875 -85.3542 217° Southwest 426 490 34,000  Level Indianapolis Center
09:38AM 37.9939 -85.4431 217° Southwest 420 483 34,000  Level Indianapolis Center
09:39AM 37.9036 -85.5303 217° Southwest 407 468 34,000  Level Indianapolis Center
09:40AM 37.8119 -85.6175 217° Southwest 407 468 34,000  Level Indianapolis Center
09:41AM 37.7208 -85.7022 216° Southwest 405 466 34,000  Level Indianapolis Center
09:42AM 37.6297 -85.7886 217° Southwest 405 466 34,000  Level Indianapolis Center
09:43AM 37.5217 -85.8928 217° Southwest 406 467 34,000  Level Indianapolis Center
09:44AM 37.4278 -85.9789 216° Southwest 411 473 34,000  Level Indianapolis Center
09:45AM 37.3350 -86.0656 217° Southwest 411 473 34,000  Level Indianapolis Center
09:46AM 37.2561 -86.1406 217° Southwest 418 481 34,000  Level Memphis Center
09:47AM 37.1611 -86.2289 217° Southwest 423 487 34,000  Level Memphis Center
09:48AM 37.0681 -86.3142 216° Southwest 423 487 34,000  Level Memphis Center
09:49AM 36.9772 -86.4019 218° Southwest 418 481 34,000  Level Memphis Center
09:50AM 36.9033 -86.5042 228° Southwest 413 475 34,000  Level Memphis Center
09:51AM 36.8506 -86.6208 241° Southwest 396 456 34,000  Level Memphis Center
09:52AM 36.8056 -86.7214 241° Southwest 390 449 34,000  Level Memphis Center
09:53AM 36.7569 -86.8375 242° Southwest 384 442 34,000  Level Memphis Center
09:54AM 36.7058 -86.9536 241° Southwest 384 442 34,000  Level Memphis Center
09:55AM 36.6528 -87.0672 240° Southwest 384 442 34,000  Level Memphis Center
09:56AM 36.5994 -87.1856 241° Southwest 384 442 34,000  Level Memphis Center
09:57AM 36.5306 -87.3406 241° Southwest 389 448 34,000  Level Memphis Center
09:58AM 36.4831 -87.4483 241° Southwest 389 448 34,000  Level Memphis Center
09:59AM 36.4294 -87.5636 240° Southwest 394 453 34,000  Level Memphis Center
10:00AM 36.3758 -87.6842 241° Southwest 400 460 34,000  Level Memphis Center
10:01AM 36.3219 -87.8044 241° Southwest 400 460 34,000  Level Memphis Center
10:02AM 36.2658 -87.9219 239° Southwest 400 460 34,000  Level Memphis Center
10:03AM 36.2139 -88.0392 241° Southwest 393 452 34,000  Level Memphis Center
10:04AM 36.1558 -88.1642 240° Southwest 398 458 34,000 -350 Level Memphis Center
10:05AM 36.0994 -88.2814 239° Southwest 393 452 33,300 -1,100 Descending Memphis Center
10:06AM 36.0572 -88.3722 240° Southwest 393 452 31,800 -2,600 Descending Memphis Center
10:07AM 35.9928 -88.5150 241° Southwest 393 452 28,100 -3,150 Descending Memphis Center
10:08AM 35.9381 -88.6317 240° Southwest 398 458 25,500 -2,400 Descending Memphis Center
10:09AM 35.8833 -88.7456 239° Southwest 398 458 23,300 -2,100 Descending Memphis Center
10:10AM 35.8344 -88.8514 240° Southwest 379 436 21,300 -2,000 Descending Memphis Center
10:11AM 35.7836 -88.9547 239° Southwest 374 430 19,300 -2,000 Descending Memphis Center
10:12AM 35.7367 -89.0553 240° Southwest 361 415 17,300 -2,050 Descending Memphis Center
10:13AM 35.6750 -89.1406 228° Southwest 350 403 15,200 -2,050 Descending Memphis Center
10:14AM 35.6153 -89.2206 227° Southwest 324 373 13,200 -1,700 Descending Memphis Center
10:15AM 35.5658 -89.2850 227° Southwest 309 356 11,800 -1,650 Descending Memphis Center
10:16AM 35.5164 -89.3494 227° Southwest 284 327 9,900 -900 Descending Memphis Center
10:17AM 35.4897 -89.4264 247° West 257 296 10,000 -250 Climbing Memphis Center
10:18AM 35.4633 -89.5031 247° West 252 290 9,400 -1,100 Descending Memphis Center
10:19AM 35.4347 -89.5875 247° West 257 296 7,800 -1,400 Descending Memphis Center
10:20AM 35.4081 -89.6719 249° West 263 303 6,600 -1,100 Descending Memphis Center
10:21AM 35.3792 -89.7536 247° West 263 303 5,600 -800 Descending Memphis Center
10:22AM 35.3567 -89.8403 252° West 263 303 5,000 -500 Descending Memphis Center
10:23AM 35.3467 -89.9192 261° West 244 281 4,600 -667 Descending Memphis Center
10:24AM 35.3333 -89.9833 256° West 232 267 3,800 -783 Descending KMEM
10:25AM 35.2833 -89.9833 180° South 192 221 3,100 -318 Descending KMEM
10:26AM 35.2167 -89.9833 180° South 177 204 3,100 -240 Level KMEM
10:27AM 35.1667 -89.9833 180° South 167 192 2,600 -645 Descending KMEM
10:28AM 35.1333 -89.9833 180° South 159 183 1,800 -706 Descending KMEM
10:29AM 35.1000 -89.9667 158° South 113 130 1,200 -645 Descending KMEM
10:30AM 35.0667 -89.9667 180° South 132 152 500 -667 Descending KMEM
10:32AM 35.0424 -89.9767 180° South  Level Estimated
10:39AM 35.0424 -89.9767 345° North  Level Estimated